Duncanville, Texas
Current Conditions -  °F | °C
As of 10:53 PM on Saturday 25 Oct 2014 (Local Time) from KRBD Reporting Station
Clear Clear  
Wind Chill: 24°   Ceiling: Unl
Heat Index: 24°   Visibility: 10mi
Dew Point: 15°   Wind: 5mph
Humidity: 56%   Direction: NA
Pressure: 30.05"   Gusts: NA
Location:  32.65°N, 96.91°W
Report Text: KRBD 260353Z VRB04KT 10SM CLR 24/15 A3005 RMK AO2 SLP169 T02440150
Loading
Personal Weather Stations






























Interactive Weather Map
Tropical Storm Tracking
New forecast layout! Learn more

10-Day Weather Forecast

Advertisements
Track Severe Weather on mobile